Time;durP1;ratioP1;P1;durP2;ratioP2;P2;SDS_P1;SDS_P2;PMS_P1;PMS_P2;Temp;Humidity;BMP_temperature;BMP_pressure;BME280_temperature;BME280_humidity;BME280_pressure;Samples;Min_cycle;Max_cycle;Signal;HPM_P1;HPM_P2
2022/04/14 00:01:38;;;;;;;4.88;1.90;;;13.30;96.70;;;;;;5084601;28;20465;-81
2022/04/14 00:04:06;;;;;;;6.85;2.20;;;13.30;96.70;;;;;;5085849;28;20409;-83
2022/04/14 00:06:34;;;;;;;3.53;2.10;;;13.30;96.70;;;;;;5072405;28;20093;-83
2022/04/14 00:09:03;;;;;;;3.95;1.85;;;13.30;96.70;;;;;;5089559;28;20439;-82
2022/04/14 00:11:31;;;;;;;4.57;2.10;;;13.20;96.70;;;;;;5089754;28;20047;-83
2022/04/14 00:13:59;;;;;;;5.53;2.30;;;13.30;96.70;;;;;;5080989;28;20048;-82
2022/04/14 00:16:27;;;;;;;3.55;2.30;;;13.20;96.70;;;;;;5084583;28;20054;-82
2022/04/14 00:18:55;;;;;;;5.95;2.30;;;13.10;96.70;;;;;;5089666;28;20036;-83
2022/04/14 00:21:23;;;;;;;3.58;2.13;;;13.00;96.70;;;;;;5089426;28;20345;-83
2022/04/14 00:23:51;;;;;;;4.30;2.28;;;12.90;96.70;;;;;;5088940;28;20036;-83
2022/04/14 00:26:21;;;;;;;4.85;2.30;;;12.90;96.70;;;;;;5089834;28;20050;-83
2022/04/14 00:28:49;;;;;;;5.85;2.25;;;12.90;96.70;;;;;;5089447;28;20044;-83
2022/04/14 00:31:17;;;;;;;5.10;2.67;;;12.80;96.70;;;;;;5052513;28;20056;-83
2022/04/14 00:33:45;;;;;;;3.00;1.95;;;12.80;96.70;;;;;;5070820;28;20070;-83
2022/04/14 00:36:12;;;;;;;4.40;2.42;;;12.70;96.70;;;;;;5084697;28;20044;-82
2022/04/14 00:38:41;;;;;;;3.65;2.40;;;12.60;96.70;;;;;;5083166;28;20048;-83
2022/04/14 00:41:09;;;;;;;7.07;2.65;;;12.50;96.70;;;;;;5090108;28;20087;-82
2022/04/14 00:43:39;;;;;;;3.83;2.20;;;12.50;96.70;;;;;;5090442;28;20147;-83
2022/04/14 00:46:07;;;;;;;3.88;2.13;;;12.50;96.70;;;;;;5090448;28;20048;-83
2022/04/14 00:48:35;;;;;;;5.07;2.38;;;12.40;96.70;;;;;;5088869;28;20071;-82
2022/04/14 00:51:06;;;;;;;6.22;2.50;;;12.40;96.70;;;;;;5084603;28;20513;-83
2022/04/14 00:53:34;;;;;;;4.80;2.20;;;12.40;96.70;;;;;;5089867;28;20044;-83
2022/04/14 00:56:02;;;;;;;4.28;2.20;;;12.30;96.70;;;;;;5089035;28;20047;-83
2022/04/14 00:58:30;;;;;;;3.17;2.50;;;12.30;96.70;;;;;;5088679;28;20083;-82
2022/04/14 01:01:00;;;;;;;5.05;2.10;;;12.30;96.70;;;;;;5088220;28;20040;-83
2022/04/14 01:03:29;;;;;;;4.55;2.00;;;12.30;96.70;;;;;;5076952;28;20129;-83
2022/04/14 01:05:58;;;;;;;3.65;2.50;;;12.30;96.70;;;;;;5083281;28;20048;-83
2022/04/14 01:08:27;;;;;;;5.53;2.42;;;12.30;96.70;;;;;;5088668;28;20995;-82
2022/04/14 01:10:56;;;;;;;5.32;2.35;;;12.40;96.70;;;;;;5089636;28;20596;-83
2022/04/14 01:13:24;;;;;;;3.42;2.45;;;12.40;96.70;;;;;;5080944;28;20047;-83
2022/04/14 01:15:58;;;;;;;4.05;2.40;;;12.30;96.70;;;;;;5088622;28;20044;-83
2022/04/14 01:18:27;;;;;;;5.50;2.40;;;12.20;96.70;;;;;;5082102;28;20050;-77
2022/04/14 01:20:55;;;;;;;4.45;2.13;;;12.30;96.70;;;;;;5079998;28;20048;-76
2022/04/14 01:23:39;;;;;;;5.07;2.30;;;12.30;96.70;;;;;;5079645;28;20056;-76
2022/04/14 01:26:08;;;;;;;2.67;1.98;;;12.30;96.70;;;;;;5083027;28;20055;-77
2022/04/14 01:28:37;;;;;;;6.07;2.08;;;12.30;96.70;;;;;;5083729;28;20051;-77
2022/04/14 01:31:06;;;;;;;6.07;2.35;;;12.20;96.70;;;;;;5082546;28;20052;-77
2022/04/14 01:33:34;;;;;;;4.15;2.17;;;12.20;96.70;;;;;;5083338;28;20044;-77
2022/04/14 01:36:02;;;;;;;3.78;1.90;;;12.20;96.70;;;;;;5073966;28;20121;-77
2022/04/14 01:38:30;;;;;;;3.35;2.00;;;12.10;96.70;;;;;;5076456;28;20078;-76
2022/04/14 01:40:59;;;;;;;5.95;2.10;;;12.10;96.70;;;;;;5071552;28;20078;-77
2022/04/14 01:43:27;;;;;;;4.93;2.50;;;12.10;96.70;;;;;;5084783;28;20051;-77
2022/04/14 01:45:55;;;;;;;4.60;2.08;;;12.10;96.70;;;;;;5082107;28;20044;-77
2022/04/14 01:48:24;;;;;;;3.75;2.20;;;12.00;96.70;;;;;;5060625;28;20074;-77
2022/04/14 01:50:52;;;;;;;3.63;1.98;;;12.00;96.70;;;;;;5093658;28;20044;-77
2022/04/14 01:53:20;;;;;;;3.10;1.98;;;12.00;96.70;;;;;;5065613;28;20071;-76
2022/04/14 01:55:48;;;;;;;5.03;2.58;;;12.00;96.70;;;;;;5081638;28;20051;-77
2022/04/14 01:58:17;;;;;;;3.70;2.10;;;12.00;96.70;;;;;;5077848;28;20080;-77
2022/04/14 02:00:45;;;;;;;4.75;2.10;;;12.00;96.70;;;;;;5082097;28;20501;-77
2022/04/14 02:03:13;;;;;;;3.70;2.00;;;11.90;96.70;;;;;;5082295;28;20047;-77
2022/04/14 02:05:41;;;;;;;4.20;2.13;;;12.00;96.70;;;;;;5082302;28;20135;-77
2022/04/14 02:08:11;;;;;;;3.17;1.95;;;11.90;96.70;;;;;;5080634;28;20477;-75
2022/04/14 02:10:40;;;;;;;3.67;2.20;;;11.80;96.70;;;;;;5067685;28;20056;-77
2022/04/14 02:13:08;;;;;;;2.60;1.98;;;11.80;96.70;;;;;;5082938;28;20530;-77
2022/04/14 02:15:37;;;;;;;3.45;1.85;;;11.80;96.70;;;;;;5082051;28;20480;-76
2022/04/14 02:18:05;;;;;;;3.30;1.77;;;11.80;96.70;;;;;;5073941;28;20501;-76
2022/04/14 02:20:33;;;;;;;2.80;1.98;;;11.70;96.70;;;;;;5081519;28;20431;-77
2022/04/14 02:23:01;;;;;;;3.13;1.90;;;11.60;96.70;;;;;;5082507;28;20036;-76
2022/04/14 02:25:30;;;;;;;3.70;2.00;;;11.60;96.70;;;;;;5065597;28;20048;-76
2022/04/14 02:27:58;;;;;;;3.05;1.95;;;11.50;96.70;;;;;;5083347;28;20133;-76
2022/04/14 02:30:26;;;;;;;2.92;1.77;;;11.50;96.70;;;;;;5081998;28;20051;-76
2022/04/14 02:32:55;;;;;;;4.28;2.08;;;11.50;96.70;;;;;;5081255;28;20058;-77
2022/04/14 02:35:23;;;;;;;3.25;1.70;;;11.50;96.70;;;;;;5046176;28;20059;-76
2022/04/14 02:37:51;;;;;;;3.35;1.90;;;11.40;96.70;;;;;;5080429;28;20531;-79
2022/04/14 02:40:20;;;;;;;4.75;2.05;;;11.50;96.70;;;;;;5078492;28;20499;-76
2022/04/14 02:42:48;;;;;;;2.67;1.67;;;11.40;96.70;;;;;;5081523;28;20675;-76
2022/04/14 02:45:16;;;;;;;5.53;2.10;;;11.40;96.70;;;;;;5081814;28;20844;-76
2022/04/14 02:47:44;;;;;;;2.60;1.58;;;11.40;96.70;;;;;;5064560;28;20044;-76
2022/04/14 02:50:14;;;;;;;4.15;1.88;;;11.40;96.70;;;;;;5083399;28;20044;-76
2022/04/14 02:52:42;;;;;;;3.45;1.92;;;11.40;96.70;;;;;;5080325;28;20401;-77
2022/04/14 02:55:10;;;;;;;3.05;1.77;;;11.40;96.70;;;;;;5077278;28;20051;-77
2022/04/14 02:57:38;;;;;;;5.57;2.17;;;11.40;96.70;;;;;;5093295;28;20486;-75
2022/04/14 03:00:11;;;;;;;5.00;2.38;;;11.50;96.70;;;;;;5073226;28;20136;-76
2022/04/14 03:02:40;;;;;;;2.92;1.90;;;11.40;96.70;;;;;;5080565;28;20046;-77
2022/04/14 03:05:09;;;;;;;3.55;1.83;;;11.40;96.70;;;;;;5081830;28;20040;-76
2022/04/14 03:07:39;;;;;;;2.88;2.03;;;11.40;96.70;;;;;;5080733;28;20048;-77
2022/04/14 03:10:08;;;;;;;4.75;2.10;;;11.40;96.70;;;;;;5082856;28;20056;-76
2022/04/14 03:12:44;;;;;;;3.85;1.80;;;11.30;96.70;;;;;;5081987;28;20067;-76
2022/04/14 03:15:12;;;;;;;3.83;1.88;;;11.30;96.70;;;;;;5078644;28;20542;-76
2022/04/14 03:17:40;;;;;;;3.30;2.10;;;11.30;96.70;;;;;;5080550;28;20835;-76
2022/04/14 03:20:10;;;;;;;2.78;1.88;;;11.30;96.70;;;;;;5064660;28;20398;-77
2022/04/14 03:22:39;;;;;;;3.08;2.00;;;11.30;96.70;;;;;;5082106;28;20403;-75
2022/04/14 03:25:09;;;;;;;3.08;1.98;;;11.40;96.70;;;;;;5081610;28;20489;-77
2022/04/14 03:27:37;;;;;;;2.40;1.88;;;11.30;96.70;;;;;;5082079;28;20123;-76
2022/04/14 03:30:07;;;;;;;4.45;1.75;;;11.20;96.70;;;;;;5081136;28;20055;-76
2022/04/14 03:32:40;;;;;;;3.38;2.20;;;11.20;96.70;;;;;;5078410;28;20417;-76
2022/04/14 03:35:09;;;;;;;2.67;1.67;;;11.10;96.70;;;;;;5085343;28;20051;-82
2022/04/14 03:37:39;;;;;;;3.13;2.20;;;11.10;96.70;;;;;;5076554;28;20040;-82
2022/04/14 03:40:08;;;;;;;3.30;1.45;;;11.00;96.70;;;;;;5069397;28;20481;-81
2022/04/14 03:42:36;;;;;;;3.42;1.50;;;11.00;96.70;;;;;;5069609;28;20044;-81
2022/04/14 03:45:05;;;;;;;3.25;1.60;;;10.90;96.70;;;;;;5069158;28;20050;-82
2022/04/14 03:47:34;;;;;;;2.15;1.42;;;10.80;96.70;;;;;;5086567;28;20054;-80
2022/04/14 03:50:02;;;;;;;3.00;1.60;;;10.80;96.70;;;;;;5085481;28;20039;-81
2022/04/14 03:52:30;;;;;;;3.80;1.42;;;10.80;96.70;;;;;;5076651;28;20048;-82
2022/04/14 03:55:00;;;;;;;5.35;1.67;;;10.80;96.70;;;;;;5085583;28;20051;-82
2022/04/14 03:57:28;;;;;;;2.42;1.50;;;10.70;96.70;;;;;;5087289;28;20048;-82
2022/04/14 03:59:56;;;;;;;3.92;2.00;;;10.70;96.70;;;;;;5076522;28;20044;-82
2022/04/14 04:02:31;;;;;;;4.28;1.67;;;10.70;96.70;;;;;;5080908;28;20054;-82
2022/04/14 04:05:00;;;;;;;3.75;1.73;;;10.70;96.70;;;;;;5094484;28;20136;-82
2022/04/14 04:07:28;;;;;;;5.18;2.25;;;10.70;96.70;;;;;;5065230;28;20045;-82
2022/04/14 04:09:56;;;;;;;5.55;1.83;;;10.80;96.70;;;;;;5060652;28;21050;-82
2022/04/14 04:12:25;;;;;;;3.47;1.52;;;10.80;96.70;;;;;;5067969;28;20051;-82
2022/04/14 04:14:53;;;;;;;4.63;1.75;;;10.90;96.70;;;;;;5082131;28;20040;-82
2022/04/14 04:17:21;;;;;;;4.55;1.98;;;10.80;96.70;;;;;;5089433;28;20115;-82
2022/04/14 04:19:50;;;;;;;3.28;1.63;;;10.80;96.70;;;;;;5076251;28;20048;-82
2022/04/14 04:22:18;;;;;;;4.28;2.03;;;10.80;96.70;;;;;;5090362;28;20039;-82
2022/04/14 04:24:51;;;;;;;2.92;1.80;;;10.80;96.70;;;;;;5088970;28;20043;-81
2022/04/14 04:27:19;;;;;;;3.08;1.98;;;10.80;96.70;;;;;;5071360;28;20039;-83
2022/04/14 04:29:49;;;;;;;3.00;1.60;;;10.80;96.70;;;;;;5089997;28;20071;-81
2022/04/14 04:32:17;;;;;;;2.90;1.77;;;10.70;96.70;;;;;;5086431;28;20558;-84
2022/04/14 04:34:45;;;;;;;3.65;2.03;;;10.60;96.70;;;;;;5083621;28;20067;-81
2022/04/14 04:37:15;;;;;;;3.67;1.48;;;10.60;96.70;;;;;;5084273;28;20131;-81
2022/04/14 04:39:45;;;;;;;2.10;1.45;;;10.60;96.70;;;;;;5087620;28;20052;-83
2022/04/14 04:42:13;;;;;;;2.40;1.58;;;10.60;96.70;;;;;;5081285;28;20537;-82
2022/04/14 04:44:41;;;;;;;3.45;1.90;;;10.60;96.70;;;;;;5067618;28;20048;-83
2022/04/14 04:47:11;;;;;;;2.10;1.48;;;10.50;96.70;;;;;;5072166;28;20043;-82
2022/04/14 04:49:39;;;;;;;4.32;1.60;;;10.50;96.70;;;;;;5087904;28;20202;-82
2022/04/14 04:52:07;;;;;;;4.55;1.95;;;10.50;96.70;;;;;;5082692;28;20056;-82
2022/04/14 04:54:35;;;;;;;4.35;2.00;;;10.50;96.70;;;;;;5089055;28;20528;-82
2022/04/14 04:57:04;;;;;;;4.15;2.05;;;10.50;96.70;;;;;;5089492;28;20082;-82
2022/04/14 04:59:37;;;;;;;3.42;1.92;;;10.50;96.70;;;;;;5089339;28;20040;-82
2022/04/14 05:02:06;;;;;;;4.32;2.13;;;10.60;96.70;;;;;;5088517;28;20036;-82
2022/04/14 05:04:35;;;;;;;5.20;2.15;;;10.60;96.70;;;;;;5089097;28;20071;-82
2022/04/14 05:07:04;;;;;;;6.60;1.98;;;10.70;96.70;;;;;;5084718;28;20075;-83
2022/04/14 05:09:32;;;;;;;13.70;3.28;;;10.70;96.70;;;;;;5080066;28;20052;-83
2022/04/14 05:12:00;;;;;;;5.45;1.98;;;10.80;96.70;;;;;;5080743;28;20040;-83
2022/04/14 05:14:28;;;;;;;6.15;2.25;;;10.90;96.70;;;;;;5079364;28;20036;-82
2022/04/14 05:16:56;;;;;;;5.28;2.63;;;10.90;96.70;;;;;;5081746;28;20142;-82
2022/04/14 05:19:24;;;;;;;3.50;2.20;;;10.90;96.70;;;;;;5084089;28;20414;-82
2022/04/14 05:21:54;;;;;;;4.82;2.35;;;10.90;96.70;;;;;;5087062;28;20036;-82
2022/04/14 05:24:23;;;;;;;3.53;2.08;;;10.90;96.70;;;;;;5088241;28;20140;-83
2022/04/14 05:26:51;;;;;;;5.63;2.55;;;10.90;96.70;;;;;;5087371;28;20032;-82
2022/04/14 05:29:19;;;;;;;5.50;2.65;;;10.90;96.70;;;;;;5085971;28;20940;-82
2022/04/14 05:31:47;;;;;;;5.05;2.30;;;10.90;96.70;;;;;;5081539;28;20127;-82
2022/04/14 05:34:15;;;;;;;4.45;2.50;;;10.90;96.70;;;;;;5088682;28;20713;-83
2022/04/14 05:36:43;;;;;;;4.90;2.58;;;11.00;96.70;;;;;;5079577;28;20032;-83
2022/04/14 05:39:13;;;;;;;6.53;2.78;;;11.10;96.70;;;;;;5087650;28;20043;-82
2022/04/14 05:41:41;;;;;;;6.25;2.58;;;11.20;96.70;;;;;;5087530;28;20623;-83
2022/04/14 05:44:10;;;;;;;8.15;2.85;;;11.20;96.70;;;;;;5086483;28;20052;-82
2022/04/14 05:46:38;;;;;;;6.65;3.22;;;11.30;96.70;;;;;;5097936;28;20040;-82
2022/04/14 05:49:06;;;;;;;6.72;3.25;;;11.30;96.70;;;;;;5086253;28;20044;-83
2022/04/14 05:51:39;;;;;;;5.00;2.85;;;11.40;96.70;;;;;;5076967;28;20032;-82
2022/04/14 05:54:07;;;;;;;5.57;2.80;;;11.40;96.70;;;;;;5079050;28;20048;-83
2022/04/14 05:56:37;;;;;;;4.60;2.67;;;11.50;96.70;;;;;;5086059;28;20039;-83
2022/04/14 05:59:05;;;;;;;5.88;3.10;;;11.60;96.70;;;;;;5081266;28;20056;-81
2022/04/14 06:01:33;;;;;;;6.50;2.65;;;11.60;96.70;;;;;;5086992;28;20723;-80
2022/04/14 06:04:01;;;;;;;4.03;2.80;;;11.70;96.70;;;;;;5061427;28;20055;-81
2022/04/14 06:06:30;;;;;;;6.07;2.85;;;11.70;96.70;;;;;;5083438;28;20540;-84
2022/04/14 06:08:58;;;;;;;3.97;2.40;;;11.70;96.70;;;;;;5084596;28;20054;-82
2022/04/14 06:11:28;;;;;;;4.88;2.63;;;11.80;96.70;;;;;;5087417;28;20143;-83
2022/04/14 06:13:57;;;;;;;4.95;3.15;;;11.90;96.70;;;;;;5104100;28;20501;-87
2022/04/14 06:16:25;;;;;;;4.55;2.80;;;11.90;96.70;;;;;;5086601;28;20048;-82
2022/04/14 06:18:54;;;;;;;4.93;2.70;;;11.90;96.70;;;;;;5062244;28;20040;-82
2022/04/14 06:21:22;;;;;;;3.85;2.53;;;11.90;96.70;;;;;;5079028;28;20453;-82
2022/04/14 06:23:50;;;;;;;6.50;2.75;;;11.90;96.70;;;;;;5088097;28;20036;-82
2022/04/14 06:26:18;;;;;;;6.68;2.90;;;11.90;96.70;;;;;;5086804;28;20791;-81
2022/04/14 06:28:47;;;;;;;4.13;2.53;;;12.00;96.70;;;;;;5086719;28;20044;-81
2022/04/14 06:31:16;;;;;;;4.65;2.97;;;12.10;96.70;;;;;;5086261;28;20115;-84
2022/04/14 06:33:45;;;;;;;4.90;2.80;;;12.10;96.70;;;;;;5087308;28;20060;-85
2022/04/14 06:36:17;;;;;;;4.72;2.55;;;12.20;96.70;;;;;;5069479;28;20055;-83
2022/04/14 06:38:46;;;;;;;7.07;3.78;;;12.30;96.70;;;;;;5087081;28;20498;-82
2022/04/14 06:41:14;;;;;;;4.05;2.58;;;12.30;96.70;;;;;;5086285;28;20811;-81
2022/04/14 06:43:42;;;;;;;5.15;3.20;;;12.40;96.70;;;;;;5084713;28;20662;-79
2022/04/14 06:46:11;;;;;;;8.45;3.15;;;12.40;96.70;;;;;;5070690;28;20052;-85
2022/04/14 06:48:41;;;;;;;3.63;2.63;;;12.50;96.70;;;;;;5088712;28;20119;-85
2022/04/14 06:51:09;;;;;;;3.42;2.60;;;12.60;96.70;;;;;;5086568;28;20090;-84
2022/04/14 06:53:43;;;;;;;6.00;3.78;;;12.70;96.70;;;;;;5086131;28;20135;-84
2022/04/14 06:56:12;;;;;;;5.88;3.22;;;12.80;96.70;;;;;;5077871;28;20044;-86
2022/04/14 06:58:42;;;;;;;6.72;3.83;;;12.90;96.70;;;;;;5083722;28;20131;-86
2022/04/14 07:01:10;;;;;;;7.80;3.15;;;12.90;96.70;;;;;;5085337;28;20230;-84
2022/04/14 07:03:40;;;;;;;7.18;3.10;;;13.00;96.70;;;;;;5077714;28;20049;-84
2022/04/14 07:06:08;;;;;;;5.00;3.30;;;13.10;96.70;;;;;;5084895;28;20049;-84
2022/04/14 07:08:38;;;;;;;6.13;3.30;;;13.20;96.70;;;;;;5084673;28;20044;-84
2022/04/14 07:11:06;;;;;;;7.93;3.67;;;13.30;96.70;;;;;;5084900;28;20501;-89
2022/04/14 07:13:35;;;;;;;7.68;3.95;;;13.30;96.70;;;;;;5080215;28;20040;-82
2022/04/14 07:16:03;;;;;;;6.68;3.50;;;13.40;96.70;;;;;;5063521;28;20079;-84
2022/04/14 07:18:32;;;;;;;6.82;4.03;;;13.50;96.70;;;;;;5085471;28;20814;-84
2022/04/14 07:21:05;;;;;;;5.47;4.05;;;13.60;96.70;;;;;;5070090;28;20109;-84
2022/04/14 07:23:34;;;;;;;5.82;3.72;;;13.70;96.70;;;;;;5065956;28;20059;-84
2022/04/14 07:26:02;;;;;;;7.20;3.90;;;13.90;96.70;;;;;;5076992;28;20051;-82
2022/04/14 07:28:31;;;;;;;6.80;3.22;;;14.00;96.70;;;;;;5088075;28;20135;-84
2022/04/14 07:30:59;;;;;;;6.40;3.28;;;14.10;96.70;;;;;;5087324;28;20044;-84
2022/04/14 07:33:27;;;;;;;5.43;3.00;;;14.30;96.70;;;;;;5086119;28;20040;-84
2022/04/14 07:35:58;;;;;;;6.70;3.20;;;14.40;96.70;;;;;;5086004;28;20062;-83
2022/04/14 07:38:45;;;;;;;5.35;3.33;;;14.60;96.70;;;;;;5072021;28;20103;-84
2022/04/14 07:41:13;;;;;;;5.40;3.60;;;14.70;96.70;;;;;;5073579;28;20552;-84
2022/04/14 07:43:41;;;;;;;7.25;3.80;;;14.80;96.70;;;;;;5082882;28;20515;-85
2022/04/14 07:46:10;;;;;;;6.60;3.60;;;14.80;96.70;;;;;;5067672;28;20048;-84
2022/04/14 07:48:38;;;;;;;6.35;3.78;;;14.90;96.70;;;;;;5089564;28;20046;-85
2022/04/14 07:51:08;;;;;;;8.65;3.95;;;14.90;96.70;;;;;;5082453;28;20040;-85
2022/04/14 07:53:37;;;;;;;7.20;3.70;;;15.10;96.70;;;;;;5086110;28;20040;-85
2022/04/14 07:56:07;;;;;;;7.68;4.15;;;15.20;96.70;;;;;;5078938;28;20693;-84
2022/04/14 07:58:38;;;;;;;5.82;3.60;;;15.20;96.70;;;;;;5086026;28;20052;-84
2022/04/14 08:01:06;;;;;;;6.10;3.20;;;15.30;96.70;;;;;;5089694;28;20040;-85
2022/04/14 08:03:37;;;;;;;5.63;3.20;;;15.50;96.70;;;;;;5073343;28;20316;-85
2022/04/14 08:06:05;;;;;;;6.03;3.13;;;15.60;96.70;;;;;;5098357;28;20048;-85
2022/04/14 08:08:34;;;;;;;5.57;2.58;;;15.80;96.70;;;;;;5077073;28;20516;-86
2022/04/14 08:11:03;;;;;;;5.38;2.35;;;15.90;96.70;;;;;;5087041;28;20044;-86
2022/04/14 08:13:38;;;;;;;6.80;2.47;;;16.00;96.70;;;;;;5088118;28;20138;-84
2022/04/14 08:16:09;;;;;;;5.07;3.33;;;16.10;96.70;;;;;;5089676;28;20093;-85
2022/04/14 08:18:39;;;;;;;4.97;3.13;;;16.10;96.70;;;;;;5082704;28;20105;-85
2022/04/14 08:21:07;;;;;;;6.70;3.13;;;16.10;96.70;;;;;;5084809;28;20118;-84
2022/04/14 08:23:39;;;;;;;8.63;3.60;;;16.10;96.70;;;;;;5080770;28;20048;-85
2022/04/14 08:26:08;;;;;;;8.07;4.47;;;16.30;96.70;;;;;;5073019;28;20043;-84
2022/04/14 08:28:45;;;;;;;7.28;5.53;;;16.30;96.70;;;;;;5091354;28;20059;-85
2022/04/14 08:31:14;;;;;;;6.63;3.95;;;16.30;96.70;;;;;;5087588;28;20056;-83
2022/04/14 08:33:44;;;;;;;6.68;3.45;;;16.40;96.70;;;;;;5074680;28;20306;-84
2022/04/14 08:36:15;;;;;;;5.50;3.47;;;16.50;96.70;;;;;;5072806;28;20035;-84
2022/04/14 08:38:45;;;;;;;7.40;4.03;;;16.60;96.70;;;;;;5089211;28;20036;-83
2022/04/14 08:41:14;;;;;;;7.82;4.05;;;16.70;96.70;;;;;;5089592;28;20510;-84
2022/04/14 08:43:48;;;;;;;7.00;4.80;;;16.70;96.70;;;;;;5090612;28;20064;-84
2022/04/14 08:46:19;;;;;;;11.43;5.80;;;16.80;96.70;;;;;;5098759;28;20055;-84
2022/04/14 08:48:52;;;;;;;9.05;5.47;;;17.00;96.70;;;;;;5089051;28;20391;-85
2022/04/14 08:51:22;;;;;;;10.50;5.90;;;17.30;96.70;;;;;;5081343;28;20048;-84
2022/04/14 08:53:50;;;;;;;9.13;5.53;;;17.50;96.70;;;;;;5088449;28;20048;-84
2022/04/14 08:56:24;;;;;;;7.18;5.30;;;17.70;96.70;;;;;;5086851;28;20732;-85
2022/04/14 08:58:56;;;;;;;11.35;5.75;;;18.00;96.70;;;;;;5071543;28;20054;-84
2022/04/14 09:01:27;;;;;;;9.52;4.55;;;18.10;96.70;;;;;;5080049;28;20528;-85
2022/04/14 09:03:57;;;;;;;8.57;4.05;;;18.20;96.70;;;;;;5083074;28;20044;-85
2022/04/14 09:06:27;;;;;;;6.80;4.38;;;18.10;96.70;;;;;;5088427;28;20048;-85
2022/04/14 09:08:58;;;;;;;12.35;4.25;;;18.20;96.70;;;;;;5088142;28;20174;-85
2022/04/14 09:11:27;;;;;;;3.45;1.75;;;18.40;96.70;;;;;;5088478;28;20501;-84
2022/04/14 09:13:59;;;;;;;1.83;1.00;;;18.70;94.80;;;;;;5088684;28;20048;-84
2022/04/14 09:16:30;;;;;;;2.30;0.90;;;19.00;89.70;;;;;;5104173;28;20391;-85
2022/04/14 09:19:01;;;;;;;2.28;1.35;;;19.20;88.40;;;;;;5088851;28;20068;-85
2022/04/14 09:21:30;;;;;;;4.25;0.98;;;19.40;85.50;;;;;;5088056;28;20063;-81
2022/04/14 09:23:58;;;;;;;3.15;0.85;;;19.50;83.80;;;;;;5069844;28;20044;-82
2022/04/14 09:26:27;;;;;;;2.13;0.70;;;19.70;83.60;;;;;;5069536;28;20090;-82
2022/04/14 09:29:10;;;;;;;1.70;0.98;;;19.80;82.50;;;;;;5088134;28;20048;-80
2022/04/14 09:31:47;;;;;;;4.38;0.95;;;19.90;82.20;;;;;;5077368;28;20520;-84
2022/04/14 09:34:19;;;;;;;3.35;0.80;;;20.00;82.10;;;;;;5068592;28;20055;-84
2022/04/14 09:37:08;;;;;;;1.58;0.73;;;20.20;81.50;;;;;;5088231;28;20048;-83
2022/04/14 09:39:59;;;;;;;1.60;0.68;;;20.50;80.30;;;;;;5062851;28;20052;-84
2022/04/14 09:42:29;;;;;;;1.80;0.68;;;20.70;79.40;;;;;;5096714;28;20074;-83
2022/04/14 09:45:20;;;;;;;2.10;0.90;;;20.90;78.40;;;;;;5086815;28;20374;-83
2022/04/14 09:48:06;;;;;;;0.93;0.65;;;21.00;78.90;;;;;;5056544;28;20228;-82
2022/04/14 09:50:36;;;;;;;1.85;0.73;;;21.10;77.00;;;;;;5078805;28;20052;-82
2022/04/14 09:53:05;;;;;;;2.88;0.70;;;21.20;76.70;;;;;;5085010;28;20067;-83
2022/04/14 09:55:35;;;;;;;2.60;0.50;;;21.30;78.70;;;;;;5080196;28;20119;-84
2022/04/14 09:58:09;;;;;;;1.23;0.57;;;21.40;76.90;;;;;;5087473;28;20460;-83
2022/04/14 10:00:42;;;;;;;1.23;0.57;;;21.30;76.30;;;;;;5087809;28;20046;-83
2022/04/14 10:03:14;;;;;;;2.42;0.90;;;21.40;76.60;;;;;;5062512;28;20083;-83
2022/04/14 10:05:43;;;;;;;1.42;0.70;;;21.50;76.60;;;;;;5085665;28;20565;-84
2022/04/14 10:08:13;;;;;;;1.40;0.73;;;21.50;75.40;;;;;;5088011;28;20055;-84
2022/04/14 10:10:43;;;;;;;2.83;0.70;;;21.60;75.00;;;;;;5084050;28;20832;-83
2022/04/14 10:13:13;;;;;;;1.35;0.50;;;21.70;74.90;;;;;;5078845;28;20049;-84
2022/04/14 10:15:44;;;;;;;4.35;0.90;;;21.90;74.80;;;;;;5087217;28;20552;-82
2022/04/14 10:18:14;;;;;;;3.00;0.73;;;22.10;76.10;;;;;;5087569;28;20054;-82
2022/04/14 10:20:44;;;;;;;1.42;0.77;;;22.20;74.00;;;;;;5083738;28;20040;-83
2022/04/14 10:23:13;;;;;;;0.88;0.70;;;22.30;74.00;;;;;;5086467;28;20052;-85
2022/04/14 10:25:42;;;;;;;0.60;0.50;;;22.40;72.90;;;;;;5085104;28;20509;-84
2022/04/14 10:28:14;;;;;;;1.80;0.77;;;22.50;71.80;;;;;;5071188;28;20052;-84
2022/04/14 10:30:47;;;;;;;1.73;0.55;;;22.50;71.70;;;;;;5087331;28;20060;-84
2022/04/14 10:33:22;;;;;;;1.40;0.55;;;22.20;72.20;;;;;;5067250;28;20044;-83
2022/04/14 10:35:53;;;;;;;3.00;0.93;;;22.30;72.60;;;;;;5076837;28;20048;-84
2022/04/14 10:38:24;;;;;;;1.65;0.77;;;22.40;71.80;;;;;;5086301;28;20477;-83
2022/04/14 10:40:57;;;;;;;2.33;0.70;;;22.60;71.90;;;;;;5078681;28;20070;-85
2022/04/14 10:43:26;;;;;;;2.28;0.40;;;22.60;72.30;;;;;;5082395;28;20089;-84
2022/04/14 10:45:57;;;;;;;1.85;0.77;;;22.60;72.50;;;;;;5088339;28;20149;-85
2022/04/14 10:48:29;;;;;;;2.00;0.85;;;22.80;72.40;;;;;;5086720;28;20051;-84
2022/04/14 10:51:17;;;;;;;1.02;0.57;;;22.80;72.60;;;;;;5079011;28;20057;-83
2022/04/14 10:53:50;;;;;;;2.78;1.00;;;22.70;72.40;;;;;;5081419;28;20414;-83
2022/04/14 10:56:51;;;;;;;1.48;0.70;;;23.00;71.80;;;;;;5086921;28;20059;-84
2022/04/14 10:59:21;;;;;;;1.52;0.60;;;23.10;71.50;;;;;;5025421;28;20438;-82
2022/04/14 11:01:55;;;;;;;2.17;0.80;;;23.20;71.00;;;;;;5009339;28;20072;-84
2022/04/14 11:04:31;;;;;;;1.45;0.60;;;23.40;70.10;;;;;;5023426;28;20053;-82
2022/04/14 11:07:01;;;;;;;;;;;23.60;71.10;;;;;;5015946;28;20071;-81
2022/04/14 11:09:51;;;;;;;2.25;0.50;;;23.70;71.20;;;;;;5023462;28;19947;-81
2022/04/14 11:12:22;;;;;;;1.40;0.55;;;23.90;70.90;;;;;;4982393;28;20049;-81
2022/04/14 11:14:56;;;;;;;1.85;0.75;;;24.00;70.20;;;;;;5006626;28;20590;-81
2022/04/14 11:17:50;;;;;;;1.00;0.40;;;23.80;70.70;;;;;;5005595;28;20053;-81
2022/04/14 11:20:55;;;;;;;2.15;0.55;;;23.50;70.30;;;;;;5003387;28;20051;-81
2022/04/14 11:23:29;;;;;;;2.75;0.60;;;23.50;69.90;;;;;;5004922;28;20119;-81
2022/04/14 11:26:14;;;;;;;4.13;0.50;;;23.50;69.50;;;;;;5013889;28;20519;-82
2022/04/14 11:28:55;;;;;;;2.67;0.60;;;23.50;69.00;;;;;;5006291;28;20624;-81
2022/04/14 11:31:25;;;;;;;1.85;0.57;;;23.90;69.10;;;;;;5074779;28;20048;-77
2022/04/14 11:33:57;;;;;;;1.98;0.55;;;24.10;68.20;;;;;;5081768;28;20040;-78
2022/04/14 11:36:39;;;;;;;4.30;0.73;;;24.10;69.60;;;;;;5071706;28;20176;-78
2022/04/14 11:39:09;;;;;;;1.60;0.80;;;24.00;70.10;;;;;;5080432;28;20131;-79
2022/04/14 11:41:41;;;;;;;1.73;0.60;;;23.90;69.30;;;;;;5080747;28;20043;-83
2022/04/14 11:44:12;;;;;;;2.17;0.38;;;23.80;70.00;;;;;;5086346;28;20509;-84
2022/04/14 11:46:43;;;;;;;0.88;0.50;;;23.80;70.40;;;;;;5085827;28;20497;-84
2022/04/14 11:49:15;;;;;;;1.92;0.73;;;23.80;69.50;;;;;;5087089;28;20079;-83
2022/04/14 11:51:47;;;;;;;1.85;0.65;;;24.20;70.40;;;;;;5086617;28;20485;-83
2022/04/14 11:54:34;;;;;;;1.63;0.50;;;24.60;69.30;;;;;;5085399;28;20044;-84
2022/04/14 11:57:09;;;;;;;1.00;0.57;;;25.00;68.30;;;;;;5085843;28;20043;-82
2022/04/14 11:59:41;;;;;;;2.20;0.77;;;25.20;67.20;;;;;;5085828;28;20044;-82
2022/04/14 12:02:11;;;;;;;2.40;0.47;;;25.30;66.50;;;;;;5076696;28;20032;-82
2022/04/14 12:04:44;;;;;;;1.42;0.50;;;25.40;67.10;;;;;;5083627;28;20453;-84
2022/04/14 12:07:15;;;;;;;2.10;0.73;;;25.50;67.30;;;;;;5072769;28;20212;-83
2022/04/14 12:09:43;;;;;;;0.98;0.60;;;25.60;66.50;;;;;;5071701;28;20390;-81
2022/04/14 12:12:13;;;;;;;2.90;0.55;;;25.60;66.80;;;;;;5081410;28;20056;-81
2022/04/14 12:14:43;;;;;;;1.30;0.60;;;25.30;67.00;;;;;;5075433;28;20047;-82
2022/04/14 12:17:11;;;;;;;2.38;0.50;;;25.40;66.80;;;;;;5084477;28;20048;-83
2022/04/14 12:19:47;;;;;;;1.52;0.60;;;25.60;67.50;;;;;;5059015;28;20048;-81
2022/04/14 12:22:15;;;;;;;1.13;0.57;;;25.30;66.20;;;;;;5057946;28;20133;-81
2022/04/14 12:24:48;;;;;;;2.50;0.65;;;25.20;67.10;;;;;;5082241;28;20051;-81
2022/04/14 12:27:22;;;;;;;2.35;0.47;;;25.30;67.30;;;;;;5074092;28;20089;-82
2022/04/14 12:29:53;;;;;;;1.67;0.50;;;25.50;65.80;;;;;;5075213;28;20143;-81
2022/04/14 12:32:26;;;;;;;3.83;0.63;;;25.80;66.40;;;;;;5084019;28;20040;-81
2022/04/14 12:34:56;;;;;;;1.73;0.80;;;26.00;65.70;;;;;;5079454;28;20719;-81
2022/04/14 12:37:34;;;;;;;0.60;0.38;;;26.20;65.00;;;;;;5080985;28;20413;-81
2022/04/14 12:40:10;;;;;;;1.98;0.60;;;26.30;65.30;;;;;;5086691;28;20052;-82
2022/04/14 12:42:39;;;;;;;2.65;0.68;;;26.30;64.80;;;;;;5070271;28;20777;-82
2022/04/14 12:45:09;;;;;;;1.77;0.60;;;26.20;64.00;;;;;;5084185;28;20410;-81
2022/04/14 12:47:41;;;;;;;1.33;0.63;;;26.20;64.30;;;;;;5086883;28;20402;-81
2022/04/14 12:50:12;;;;;;;1.38;0.70;;;26.30;64.30;;;;;;5080724;28;20111;-82
2022/04/14 12:52:46;;;;;;;1.92;0.63;;;26.10;65.80;;;;;;5083888;28;20105;-82
2022/04/14 12:55:21;;;;;;;1.17;0.60;;;26.00;65.50;;;;;;5086613;28;20052;-82
2022/04/14 12:57:52;;;;;;;1.35;0.60;;;26.00;65.50;;;;;;5084775;28;20106;-82
2022/04/14 13:00:21;;;;;;;0.90;0.30;;;25.90;66.40;;;;;;5084348;28;20388;-81
2022/04/14 13:03:00;;;;;;;1.95;0.73;;;25.80;66.00;;;;;;5079613;28;20686;-81
2022/04/14 13:05:30;;;;;;;2.22;0.68;;;25.80;66.50;;;;;;5079695;28;20073;-82